sensor_id;sensor_type;location;lat;lon;timestamp;P1;P2;P0
66336;PMS1003;53139;45.576;5.304;2023-09-19T00:02:07;3.50;3.00;2.00
66336;PMS1003;53139;45.576;5.304;2023-09-19T00:05:08;6.00;4.00;3.00
66336;PMS1003;53139;45.576;5.304;2023-09-19T00:08:09;3.00;2.50;2.00
66336;PMS1003;53139;45.576;5.304;2023-09-19T00:11:09;4.25;3.25;2.25
66336;PMS1003;53139;45.576;5.304;2023-09-19T00:14:11;6.00;3.50;2.00
66336;PMS1003;53139;45.576;5.304;2023-09-19T00:17:14;3.50;3.00;2.00
66336;PMS1003;53139;45.576;5.304;2023-09-19T00:20:16;6.00;3.50;3.00
66336;PMS1003;53139;45.576;5.304;2023-09-19T00:23:17;5.25;3.00;3.00
66336;PMS1003;53139;45.576;5.304;2023-09-19T00:26:19;4.75;4.00;3.00
66336;PMS1003;53139;45.576;5.304;2023-09-19T00:29:21;4.75;3.00;2.50
66336;PMS1003;53139;45.576;5.304;2023-09-19T00:32:23;3.25;2.00;2.00
66336;PMS1003;53139;45.576;5.304;2023-09-19T00:35:23;6.50;3.25;3.00
66336;PMS1003;53139;45.576;5.304;2023-09-19T00:38:24;5.00;3.75;3.00
66336;PMS1003;53139;45.576;5.304;2023-09-19T00:41:26;4.00;3.25;3.00
66336;PMS1003;53139;45.576;5.304;2023-09-19T00:44:30;1.50;1.50;1.25
66336;PMS1003;53139;45.576;5.304;2023-09-19T00:47:30;3.50;3.00;2.00
66336;PMS1003;53139;45.576;5.304;2023-09-19T00:50:31;5.00;2.25;2.00
66336;PMS1003;53139;45.576;5.304;2023-09-19T00:53:32;4.75;3.50;2.50
66336;PMS1003;53139;45.576;5.304;2023-09-19T00:56:34;4.50;3.25;2.75
66336;PMS1003;53139;45.576;5.304;2023-09-19T00:59:34;3.00;3.00;2.00
66336;PMS1003;53139;45.576;5.304;2023-09-19T01:02:36;3.75;2.75;2.00
66336;PMS1003;53139;45.576;5.304;2023-09-19T01:05:37;3.00;2.25;2.00
66336;PMS1003;53139;45.576;5.304;2023-09-19T01:08:37;4.00;4.00;2.00
66336;PMS1003;53139;45.576;5.304;2023-09-19T01:11:38;4.00;3.00;2.00
66336;PMS1003;53139;45.576;5.304;2023-09-19T01:15:03;7.00;3.75;2.75
66336;PMS1003;53139;45.576;5.304;2023-09-19T01:22:09;7.00;3.75;2.75
66336;PMS1003;53139;45.576;5.304;2023-09-19T01:28:45;5.50;3.00;2.50
66336;PMS1003;53139;45.576;5.304;2023-09-19T01:32:02;4.50;4.25;3.00
66336;PMS1003;53139;45.576;5.304;2023-09-19T01:35:04;3.00;3.00;1.50
66336;PMS1003;53139;45.576;5.304;2023-09-19T01:38:05;6.00;3.25;3.00
66336;PMS1003;53139;45.576;5.304;2023-09-19T01:41:11;4.50;3.00;2.50
66336;PMS1003;53139;45.576;5.304;2023-09-19T01:47:55;4.50;3.00;2.25
66336;PMS1003;53139;45.576;5.304;2023-09-19T01:51:07;3.00;2.00;2.00
66336;PMS1003;53139;45.576;5.304;2023-09-19T01:54:10;2.50;2.50;2.50
66336;PMS1003;53139;45.576;5.304;2023-09-19T01:57:32;4.50;4.00;3.00
66336;PMS1003;53139;45.576;5.304;2023-09-19T02:00:37;5.50;4.00;3.00
66336;PMS1003;53139;45.576;5.304;2023-09-19T02:03:41;4.00;3.25;3.00
66336;PMS1003;53139;45.576;5.304;2023-09-19T02:06:44;4.00;2.00;2.00
66336;PMS1003;53139;45.576;5.304;2023-09-19T02:09:47;5.25;3.00;2.00
66336;PMS1003;53139;45.576;5.304;2023-09-19T02:12:48;4.00;3.00;2.00
66336;PMS1003;53139;45.576;5.304;2023-09-19T02:15:49;5.00;4.00;2.75
66336;PMS1003;53139;45.576;5.304;2023-09-19T02:18:49;2.75;2.00;1.75
66336;PMS1003;53139;45.576;5.304;2023-09-19T02:21:50;2.25;2.00;1.50
66336;PMS1003;53139;45.576;5.304;2023-09-19T02:24:50;3.00;2.25;2.00
66336;PMS1003;53139;45.576;5.304;2023-09-19T02:27:51;3.75;1.00;1.00
66336;PMS1003;53139;45.576;5.304;2023-09-19T02:30:54;3.50;3.50;3.00
66336;PMS1003;53139;45.576;5.304;2023-09-19T02:33:55;8.00;4.75;3.00
66336;PMS1003;53139;45.576;5.304;2023-09-19T02:36:56;3.50;3.00;2.00
66336;PMS1003;53139;45.576;5.304;2023-09-19T02:39:56;5.00;3.00;2.00
66336;PMS1003;53139;45.576;5.304;2023-09-19T02:42:57;7.75;3.25;3.00
66336;PMS1003;53139;45.576;5.304;2023-09-19T02:45:59;2.75;2.50;2.25
66336;PMS1003;53139;45.576;5.304;2023-09-19T02:48:59;4.00;4.00;2.75
66336;PMS1003;53139;45.576;5.304;2023-09-19T02:52:00;6.00;4.00;3.00
66336;PMS1003;53139;45.576;5.304;2023-09-19T02:55:00;3.75;3.00;2.00
66336;PMS1003;53139;45.576;5.304;2023-09-19T02:58:01;6.00;4.75;3.00
66336;PMS1003;53139;45.576;5.304;2023-09-19T03:01:10;2.00;2.00;1.25
66336;PMS1003;53139;45.576;5.304;2023-09-19T03:04:14;7.00;4.50;3.50
66336;PMS1003;53139;45.576;5.304;2023-09-19T03:07:19;2.50;2.25;1.50
66336;PMS1003;53139;45.576;5.304;2023-09-19T03:10:20;3.50;3.00;2.00
66336;PMS1003;53139;45.576;5.304;2023-09-19T03:13:21;6.00;4.25;3.50
66336;PMS1003;53139;45.576;5.304;2023-09-19T03:16:22;5.25;4.75;3.25
66336;PMS1003;53139;45.576;5.304;2023-09-19T03:19:22;3.75;3.50;2.75
66336;PMS1003;53139;45.576;5.304;2023-09-19T03:22:23;6.75;3.00;2.25
66336;PMS1003;53139;45.576;5.304;2023-09-19T03:25:24;6.75;5.00;4.00
66336;PMS1003;53139;45.576;5.304;2023-09-19T03:28:25;4.25;4.00;4.00
66336;PMS1003;53139;45.576;5.304;2023-09-19T03:31:25;2.00;1.75;1.75
66336;PMS1003;53139;45.576;5.304;2023-09-19T03:34:26;4.50;3.50;2.75
66336;PMS1003;53139;45.576;5.304;2023-09-19T03:37:26;5.50;5.00;3.75
66336;PMS1003;53139;45.576;5.304;2023-09-19T03:40:27;4.00;4.00;3.00
66336;PMS1003;53139;45.576;5.304;2023-09-19T03:43:27;4.00;4.00;2.25
66336;PMS1003;53139;45.576;5.304;2023-09-19T03:46:28;2.75;2.75;2.50
66336;PMS1003;53139;45.576;5.304;2023-09-19T03:49:28;3.75;3.50;3.00
66336;PMS1003;53139;45.576;5.304;2023-09-19T03:52:28;2.25;1.50;1.25
66336;PMS1003;53139;45.576;5.304;2023-09-19T03:55:29;1.50;1.50;1.50
66336;PMS1003;53139;45.576;5.304;2023-09-19T03:58:32;1.75;1.75;1.00
66336;PMS1003;53139;45.576;5.304;2023-09-19T04:01:35;1.00;1.00;1.00
66336;PMS1003;53139;45.576;5.304;2023-09-19T04:04:35;0.50;0.00;0.00
66336;PMS1003;53139;45.576;5.304;2023-09-19T04:07:35;0.00;0.00;0.00
66336;PMS1003;53139;45.576;5.304;2023-09-19T04:10:36;0.00;0.00;0.00
66336;PMS1003;53139;45.576;5.304;2023-09-19T04:13:36;0.50;0.50;0.00
66336;PMS1003;53139;45.576;5.304;2023-09-19T04:16:37;0.00;0.00;0.00
66336;PMS1003;53139;45.576;5.304;2023-09-19T04:19:39;0.00;0.00;0.00
66336;PMS1003;53139;45.576;5.304;2023-09-19T04:22:40;1.00;1.00;1.00
66336;PMS1003;53139;45.576;5.304;2023-09-19T04:25:41;1.25;1.00;1.00
66336;PMS1003;53139;45.576;5.304;2023-09-19T04:28:41;1.00;0.00;0.00
66336;PMS1003;53139;45.576;5.304;2023-09-19T04:31:44;1.00;1.00;0.25
66336;PMS1003;53139;45.576;5.304;2023-09-19T04:34:45;1.75;0.00;0.00
66336;PMS1003;53139;45.576;5.304;2023-09-19T04:37:45;1.00;1.00;1.00
66336;PMS1003;53139;45.576;5.304;2023-09-19T04:40:48;0.00;0.00;0.00
66336;PMS1003;53139;45.576;5.304;2023-09-19T04:43:48;0.00;0.00;0.00
66336;PMS1003;53139;45.576;5.304;2023-09-19T04:46:50;0.00;0.00;0.00
66336;PMS1003;53139;45.576;5.304;2023-09-19T04:49:51;0.50;0.50;0.50
66336;PMS1003;53139;45.576;5.304;2023-09-19T04:52:51;0.00;0.00;0.00
66336;PMS1003;53139;45.576;5.304;2023-09-19T04:55:51;1.75;0.25;0.25
66336;PMS1003;53139;45.576;5.304;2023-09-19T04:58:55;2.75;2.00;1.25
66336;PMS1003;53139;45.576;5.304;2023-09-19T05:01:57;1.00;1.00;1.00
66336;PMS1003;53139;45.576;5.304;2023-09-19T05:04:57;1.75;1.00;0.75
66336;PMS1003;53139;45.576;5.304;2023-09-19T05:08:00;0.50;0.50;0.00
66336;PMS1003;53139;45.576;5.304;2023-09-19T05:11:03;1.00;1.00;1.00
66336;PMS1003;53139;45.576;5.304;2023-09-19T05:14:03;2.00;2.00;1.75
66336;PMS1003;53139;45.576;5.304;2023-09-19T05:17:04;2.25;1.75;1.25
66336;PMS1003;53139;45.576;5.304;2023-09-19T05:20:04;1.50;1.00;0.75
66336;PMS1003;53139;45.576;5.304;2023-09-19T05:23:15;1.00;1.00;1.00
66336;PMS1003;53139;45.576;5.304;2023-09-19T05:26:16;1.00;1.00;1.00
66336;PMS1003;53139;45.576;5.304;2023-09-19T05:29:18;8.50;8.50;6.50
66336;PMS1003;53139;45.576;5.304;2023-09-19T05:32:18;7.50;5.75;5.00
66336;PMS1003;53139;45.576;5.304;2023-09-19T05:35:19;5.25;4.00;3.25
66336;PMS1003;53139;45.576;5.304;2023-09-19T05:38:21;2.00;2.00;2.00
66336;PMS1003;53139;45.576;5.304;2023-09-19T05:41:22;3.50;2.75;2.00
66336;PMS1003;53139;45.576;5.304;2023-09-19T05:44:23;3.25;2.25;2.00
66336;PMS1003;53139;45.576;5.304;2023-09-19T05:47:24;1.00;1.00;0.25
66336;PMS1003;53139;45.576;5.304;2023-09-19T05:50:25;1.25;1.00;1.00
66336;PMS1003;53139;45.576;5.304;2023-09-19T05:53:25;1.25;1.25;0.75
66336;PMS1003;53139;45.576;5.304;2023-09-19T05:56:25;1.00;1.00;1.00
66336;PMS1003;53139;45.576;5.304;2023-09-19T05:59:27;2.00;2.00;1.00
66336;PMS1003;53139;45.576;5.304;2023-09-19T06:02:28;1.00;1.00;1.00
66336;PMS1003;53139;45.576;5.304;2023-09-19T06:05:30;1.00;1.00;1.00
66336;PMS1003;53139;45.576;5.304;2023-09-19T06:08:33;1.00;1.00;1.00
66336;PMS1003;53139;45.576;5.304;2023-09-19T06:11:34;1.75;1.75;1.25
66336;PMS1003;53139;45.576;5.304;2023-09-19T06:14:35;0.75;0.00;0.00
66336;PMS1003;53139;45.576;5.304;2023-09-19T06:17:35;1.00;1.00;1.00
66336;PMS1003;53139;45.576;5.304;2023-09-19T06:20:38;2.00;2.00;1.50
66336;PMS1003;53139;45.576;5.304;2023-09-19T06:23:44;2.25;2.00;1.75
66336;PMS1003;53139;45.576;5.304;2023-09-19T06:26:44;2.00;1.00;1.00
66336;PMS1003;53139;45.576;5.304;2023-09-19T06:29:45;1.00;1.00;1.00
66336;PMS1003;53139;45.576;5.304;2023-09-19T06:32:45;1.00;1.00;1.00
66336;PMS1003;53139;45.576;5.304;2023-09-19T06:35:46;0.00;0.00;0.00
66336;PMS1003;53139;45.576;5.304;2023-09-19T06:38:47;1.50;1.50;1.25
66336;PMS1003;53139;45.576;5.304;2023-09-19T06:41:51;4.00;2.00;2.00
66336;PMS1003;53139;45.576;5.304;2023-09-19T06:44:53;1.75;1.00;1.00
66336;PMS1003;53139;45.576;5.304;2023-09-19T06:47:54;1.00;1.00;1.00
66336;PMS1003;53139;45.576;5.304;2023-09-19T06:50:57;2.75;2.00;1.75
66336;PMS1003;53139;45.576;5.304;2023-09-19T06:53:58;1.00;1.00;1.00
66336;PMS1003;53139;45.576;5.304;2023-09-19T06:56:58;2.25;2.25;2.00
66336;PMS1003;53139;45.576;5.304;2023-09-19T06:59:59;2.00;2.00;1.50
66336;PMS1003;53139;45.576;5.304;2023-09-19T07:03:02;2.00;1.00;1.00
66336;PMS1003;53139;45.576;5.304;2023-09-19T07:06:03;1.75;1.00;1.00
66336;PMS1003;53139;45.576;5.304;2023-09-19T07:09:04;1.75;1.25;0.75
66336;PMS1003;53139;45.576;5.304;2023-09-19T07:12:05;1.00;0.25;0.00
66336;PMS1003;53139;45.576;5.304;2023-09-19T07:15:05;1.00;1.00;1.00
66336;PMS1003;53139;45.576;5.304;2023-09-19T07:18:06;1.00;1.00;1.00
66336;PMS1003;53139;45.576;5.304;2023-09-19T07:21:10;1.00;0.00;0.00
66336;PMS1003;53139;45.576;5.304;2023-09-19T07:24:15;0.00;0.00;0.00
66336;PMS1003;53139;45.576;5.304;2023-09-19T07:27:15;1.00;1.00;0.50
66336;PMS1003;53139;45.576;5.304;2023-09-19T07:30:16;0.50;0.50;0.50
66336;PMS1003;53139;45.576;5.304;2023-09-19T07:33:17;2.50;0.25;0.00
66336;PMS1003;53139;45.576;5.304;2023-09-19T07:36:17;0.75;0.75;0.75
66336;PMS1003;53139;45.576;5.304;2023-09-19T07:39:17;1.00;0.50;0.25
66336;PMS1003;53139;45.576;5.304;2023-09-19T07:42:18;2.75;0.00;0.00
66336;PMS1003;53139;45.576;5.304;2023-09-19T07:45:18;1.50;1.00;1.00
66336;PMS1003;53139;45.576;5.304;2023-09-19T07:48:19;2.00;1.00;1.00
66336;PMS1003;53139;45.576;5.304;2023-09-19T07:51:19;3.25;1.50;1.00
66336;PMS1003;53139;45.576;5.304;2023-09-19T07:54:20;1.00;1.00;1.00
66336;PMS1003;53139;45.576;5.304;2023-09-19T07:57:21;1.75;1.50;1.00
66336;PMS1003;53139;45.576;5.304;2023-09-19T08:00:22;1.00;1.00;1.00
66336;PMS1003;53139;45.576;5.304;2023-09-19T08:03:22;2.50;0.25;0.00
66336;PMS1003;53139;45.576;5.304;2023-09-19T08:06:22;0.25;0.25;0.00
66336;PMS1003;53139;45.576;5.304;2023-09-19T08:09:23;1.00;1.00;0.75
66336;PMS1003;53139;45.576;5.304;2023-09-19T08:12:23;0.00;0.00;0.00
66336;PMS1003;53139;45.576;5.304;2023-09-19T08:15:24;1.50;1.00;0.50
66336;PMS1003;53139;45.576;5.304;2023-09-19T08:18:24;2.25;1.00;1.00
66336;PMS1003;53139;45.576;5.304;2023-09-19T08:21:26;1.00;1.00;1.00
66336;PMS1003;53139;45.576;5.304;2023-09-19T08:24:30;1.25;1.25;1.00
66336;PMS1003;53139;45.576;5.304;2023-09-19T08:27:30;1.00;1.00;1.00
66336;PMS1003;53139;45.576;5.304;2023-09-19T08:30:30;2.00;1.00;1.00
66336;PMS1003;53139;45.576;5.304;2023-09-19T08:33:32;0.00;0.00;0.00
66336;PMS1003;53139;45.576;5.304;2023-09-19T08:36:33;1.50;1.00;1.00
66336;PMS1003;53139;45.576;5.304;2023-09-19T08:39:33;2.50;1.75;1.25
66336;PMS1003;53139;45.576;5.304;2023-09-19T08:45:58;1.00;1.00;1.00
66336;PMS1003;53139;45.576;5.304;2023-09-19T08:49:08;2.50;1.25;1.00
66336;PMS1003;53139;45.576;5.304;2023-09-19T08:52:32;4.00;2.00;1.00
66336;PMS1003;53139;45.576;5.304;2023-09-19T08:55:41;1.25;1.00;1.00
66336;PMS1003;53139;45.576;5.304;2023-09-19T08:58:49;2.00;2.00;1.00
66336;PMS1003;53139;45.576;5.304;2023-09-19T09:01:58;2.00;1.00;0.50
66336;PMS1003;53139;45.576;5.304;2023-09-19T09:04:59;1.00;1.00;1.00
66336;PMS1003;53139;45.576;5.304;2023-09-19T09:08:00;2.00;2.00;2.00
66336;PMS1003;53139;45.576;5.304;2023-09-19T09:11:02;2.00;2.00;2.00
66336;PMS1003;53139;45.576;5.304;2023-09-19T09:14:02;2.00;1.00;1.00
66336;PMS1003;53139;45.576;5.304;2023-09-19T09:17:03;2.00;1.75;1.00
66336;PMS1003;53139;45.576;5.304;2023-09-19T09:20:03;3.25;2.75;2.00
66336;PMS1003;53139;45.576;5.304;2023-09-19T09:23:09;1.75;1.75;1.75
66336;PMS1003;53139;45.576;5.304;2023-09-19T09:26:10;2.50;2.50;2.00
66336;PMS1003;53139;45.576;5.304;2023-09-19T09:29:10;2.25;2.00;2.00
66336;PMS1003;53139;45.576;5.304;2023-09-19T09:32:24;2.75;2.00;2.00
66336;PMS1003;53139;45.576;5.304;2023-09-19T09:35:24;2.00;1.00;1.00
66336;PMS1003;53139;45.576;5.304;2023-09-19T09:38:26;4.50;3.00;2.00
66336;PMS1003;53139;45.576;5.304;2023-09-19T09:41:35;4.00;3.00;2.00
66336;PMS1003;53139;45.576;5.304;2023-09-19T09:44:37;6.50;6.50;5.25
66336;PMS1003;53139;45.576;5.304;2023-09-19T09:47:45;8.00;6.25;5.25
66336;PMS1003;53139;45.576;5.304;2023-09-19T09:50:54;10.25;7.25;6.00
66336;PMS1003;53139;45.576;5.304;2023-09-19T09:53:56;4.25;4.00;3.50
66336;PMS1003;53139;45.576;5.304;2023-09-19T09:57:12;4.00;4.00;3.00
66336;PMS1003;53139;45.576;5.304;2023-09-19T10:00:23;1.50;1.50;1.50
66336;PMS1003;53139;45.576;5.304;2023-09-19T10:03:33;3.00;3.00;2.75
66336;PMS1003;53139;45.576;5.304;2023-09-19T10:06:43;3.00;3.00;3.00
66336;PMS1003;53139;45.576;5.304;2023-09-19T10:09:47;2.75;2.25;2.00
66336;PMS1003;53139;45.576;5.304;2023-09-19T10:12:48;4.00;4.00;3.00
66336;PMS1003;53139;45.576;5.304;2023-09-19T10:15:50;3.00;3.00;2.25
66336;PMS1003;53139;45.576;5.304;2023-09-19T10:18:53;4.00;4.00;3.00
66336;PMS1003;53139;45.576;5.304;2023-09-19T10:21:58;3.25;2.00;2.00
66336;PMS1003;53139;45.576;5.304;2023-09-19T10:24:59;1.50;1.50;1.50
66336;PMS1003;53139;45.576;5.304;2023-09-19T10:28:03;3.00;3.00;2.50
66336;PMS1003;53139;45.576;5.304;2023-09-19T10:31:10;2.25;2.25;2.00
66336;PMS1003;53139;45.576;5.304;2023-09-19T10:34:14;1.75;1.75;1.00
66336;PMS1003;53139;45.576;5.304;2023-09-19T10:37:16;3.00;3.00;2.00
66336;PMS1003;53139;45.576;5.304;2023-09-19T10:40:17;2.75;2.75;2.00
66336;PMS1003;53139;45.576;5.304;2023-09-19T10:43:20;2.00;2.00;2.00
66336;PMS1003;53139;45.576;5.304;2023-09-19T10:46:25;2.00;2.00;2.00
66336;PMS1003;53139;45.576;5.304;2023-09-19T10:49:25;3.75;2.50;2.50
66336;PMS1003;53139;45.576;5.304;2023-09-19T10:52:26;2.00;2.00;2.00
66336;PMS1003;53139;45.576;5.304;2023-09-19T10:55:28;3.00;3.00;3.00
66336;PMS1003;53139;45.576;5.304;2023-09-19T10:58:31;2.75;2.75;2.75
66336;PMS1003;53139;45.576;5.304;2023-09-19T11:01:42;3.25;3.00;2.25
66336;PMS1003;53139;45.576;5.304;2023-09-19T11:04:47;3.00;3.00;2.00
66336;PMS1003;53139;45.576;5.304;2023-09-19T11:07:58;2.75;2.75;2.00
66336;PMS1003;53139;45.576;5.304;2023-09-19T11:11:04;3.00;2.00;2.00
66336;PMS1003;53139;45.576;5.304;2023-09-19T11:14:40;2.00;1.25;1.00
66336;PMS1003;53139;45.576;5.304;2023-09-19T11:17:42;2.00;1.00;1.00
66336;PMS1003;53139;45.576;5.304;2023-09-19T11:20:46;1.50;1.50;1.50
66336;PMS1003;53139;45.576;5.304;2023-09-19T11:27:11;1.00;1.00;1.00
66336;PMS1003;53139;45.576;5.304;2023-09-19T11:30:27;0.75;0.75;0.75
66336;PMS1003;53139;45.576;5.304;2023-09-19T11:33:30;1.00;1.00;0.75
66336;PMS1003;53139;45.576;5.304;2023-09-19T11:36:37;3.00;1.50;1.00
66336;PMS1003;53139;45.576;5.304;2023-09-19T11:39:38;1.75;0.75;0.75
66336;PMS1003;53139;45.576;5.304;2023-09-19T11:42:43;2.00;2.00;2.00
66336;PMS1003;53139;45.576;5.304;2023-09-19T11:46:18;3.00;2.00;1.25
66336;PMS1003;53139;45.576;5.304;2023-09-19T11:49:12;1.75;1.25;1.00
66336;PMS1003;53139;45.576;5.304;2023-09-19T11:52:20;3.00;1.25;1.00
66336;PMS1003;53139;45.576;5.304;2023-09-19T11:55:24;0.75;0.75;0.75
66336;PMS1003;53139;45.576;5.304;2023-09-19T11:58:30;2.75;1.00;1.00
66336;PMS1003;53139;45.576;5.304;2023-09-19T12:01:32;1.00;1.00;1.00
66336;PMS1003;53139;45.576;5.304;2023-09-19T12:07:42;0.75;0.75;0.75
66336;PMS1003;53139;45.576;5.304;2023-09-19T12:10:49;0.00;0.00;0.00
66336;PMS1003;53139;45.576;5.304;2023-09-19T12:13:51;2.50;1.00;1.00
66336;PMS1003;53139;45.576;5.304;2023-09-19T12:16:53;1.25;0.00;0.00
66336;PMS1003;53139;45.576;5.304;2023-09-19T12:19:55;1.50;1.00;1.00
66336;PMS1003;53139;45.576;5.304;2023-09-19T12:22:56;1.00;1.00;1.00
66336;PMS1003;53139;45.576;5.304;2023-09-19T12:25:57;2.25;1.50;1.50
66336;PMS1003;53139;45.576;5.304;2023-09-19T12:28:59;1.25;1.25;1.00
66336;PMS1003;53139;45.576;5.304;2023-09-19T12:32:01;1.25;1.00;1.00
66336;PMS1003;53139;45.576;5.304;2023-09-19T12:35:04;1.00;1.00;0.25
66336;PMS1003;53139;45.576;5.304;2023-09-19T12:38:10;1.00;1.00;1.00
66336;PMS1003;53139;45.576;5.304;2023-09-19T12:41:12;1.00;1.00;1.00
66336;PMS1003;53139;45.576;5.304;2023-09-19T12:44:12;1.00;1.00;1.00
66336;PMS1003;53139;45.576;5.304;2023-09-19T12:47:14;0.00;0.00;0.00
66336;PMS1003;53139;45.576;5.304;2023-09-19T12:50:17;1.00;0.75;0.75
66336;PMS1003;53139;45.576;5.304;2023-09-19T12:53:25;0.25;0.25;0.25
66336;PMS1003;53139;45.576;5.304;2023-09-19T12:56:29;0.00;0.00;0.00
66336;PMS1003;53139;45.576;5.304;2023-09-19T12:59:41;0.50;0.00;0.00
66336;PMS1003;53139;45.576;5.304;2023-09-19T13:03:09;0.00;0.00;0.00
66336;PMS1003;53139;45.576;5.304;2023-09-19T13:06:37;0.75;0.75;0.00
66336;PMS1003;53139;45.576;5.304;2023-09-19T13:10:01;0.25;0.25;0.25
66336;PMS1003;53139;45.576;5.304;2023-09-19T13:13:22;0.25;0.00;0.00
66336;PMS1003;53139;45.576;5.304;2023-09-19T13:16:25;0.50;0.50;0.00
66336;PMS1003;53139;45.576;5.304;2023-09-19T13:22:49;0.00;0.00;0.00
66336;PMS1003;53139;45.576;5.304;2023-09-19T13:25:54;0.00;0.00;0.00
66336;PMS1003;53139;45.576;5.304;2023-09-19T13:28:54;0.00;0.00;0.00
66336;PMS1003;53139;45.576;5.304;2023-09-19T13:31:55;0.50;0.50;0.25
66336;PMS1003;53139;45.576;5.304;2023-09-19T13:34:55;0.00;0.00;0.00
66336;PMS1003;53139;45.576;5.304;2023-09-19T13:37:55;1.00;1.00;1.00
66336;PMS1003;53139;45.576;5.304;2023-09-19T13:40:56;1.00;1.00;1.00
66336;PMS1003;53139;45.576;5.304;2023-09-19T13:43:56;2.00;1.00;1.00
66336;PMS1003;53139;45.576;5.304;2023-09-19T13:46:57;1.00;1.00;1.00
66336;PMS1003;53139;45.576;5.304;2023-09-19T13:49:57;1.00;1.00;1.00
66336;PMS1003;53139;45.576;5.304;2023-09-19T13:52:57;1.00;1.00;1.00
66336;PMS1003;53139;45.576;5.304;2023-09-19T13:56:00;0.50;0.50;0.00
66336;PMS1003;53139;45.576;5.304;2023-09-19T13:59:00;2.50;1.00;0.50
66336;PMS1003;53139;45.576;5.304;2023-09-19T14:02:01;1.00;0.00;0.00
66336;PMS1003;53139;45.576;5.304;2023-09-19T14:05:05;2.00;1.00;1.00
66336;PMS1003;53139;45.576;5.304;2023-09-19T14:08:06;2.00;0.00;0.00
66336;PMS1003;53139;45.576;5.304;2023-09-19T14:11:07;1.00;1.00;1.00
66336;PMS1003;53139;45.576;5.304;2023-09-19T14:14:08;0.00;0.00;0.00
66336;PMS1003;53139;45.576;5.304;2023-09-19T14:17:09;0.50;0.50;0.00
66336;PMS1003;53139;45.576;5.304;2023-09-19T14:20:10;0.00;0.00;0.00
66336;PMS1003;53139;45.576;5.304;2023-09-19T14:23:10;0.00;0.00;0.00
66336;PMS1003;53139;45.576;5.304;2023-09-19T14:26:12;0.00;0.00;0.00
66336;PMS1003;53139;45.576;5.304;2023-09-19T14:29:12;0.00;0.00;0.00
66336;PMS1003;53139;45.576;5.304;2023-09-19T14:32:13;0.00;0.00;0.00
66336;PMS1003;53139;45.576;5.304;2023-09-19T14:35:13;1.00;0.00;0.00
66336;PMS1003;53139;45.576;5.304;2023-09-19T14:38:14;0.00;0.00;0.00
66336;PMS1003;53139;45.576;5.304;2023-09-19T14:41:14;0.75;0.75;0.00
66336;PMS1003;53139;45.576;5.304;2023-09-19T14:44:14;1.00;1.00;1.00
66336;PMS1003;53139;45.576;5.304;2023-09-19T14:47:16;0.50;0.50;0.25
66336;PMS1003;53139;45.576;5.304;2023-09-19T14:50:17;1.00;1.00;1.00
66336;PMS1003;53139;45.576;5.304;2023-09-19T14:53:17;0.00;0.00;0.00
66336;PMS1003;53139;45.576;5.304;2023-09-19T14:56:18;0.00;0.00;0.00
66336;PMS1003;53139;45.576;5.304;2023-09-19T14:59:22;0.50;0.50;0.25
66336;PMS1003;53139;45.576;5.304;2023-09-19T15:02:23;0.00;0.00;0.00
66336;PMS1003;53139;45.576;5.304;2023-09-19T15:05:23;0.75;0.25;0.00
66336;PMS1003;53139;45.576;5.304;2023-09-19T15:08:24;1.00;0.75;0.75
66336;PMS1003;53139;45.576;5.304;2023-09-19T15:11:25;0.00;0.00;0.00
66336;PMS1003;53139;45.576;5.304;2023-09-19T15:14:25;0.00;0.00;0.00
66336;PMS1003;53139;45.576;5.304;2023-09-19T15:17:26;0.50;0.50;0.00
66336;PMS1003;53139;45.576;5.304;2023-09-19T15:20:26;0.75;0.75;0.00
66336;PMS1003;53139;45.576;5.304;2023-09-19T15:23:26;1.00;1.00;1.00
66336;PMS1003;53139;45.576;5.304;2023-09-19T15:26:29;2.25;1.00;1.00
66336;PMS1003;53139;45.576;5.304;2023-09-19T15:29:30;3.25;0.00;0.00
66336;PMS1003;53139;45.576;5.304;2023-09-19T15:32:30;1.00;1.00;0.25
66336;PMS1003;53139;45.576;5.304;2023-09-19T15:35:32;0.00;0.00;0.00
66336;PMS1003;53139;45.576;5.304;2023-09-19T15:41:59;2.00;0.75;0.00
66336;PMS1003;53139;45.576;5.304;2023-09-19T15:45:00;1.00;1.00;0.00
66336;PMS1003;53139;45.576;5.304;2023-09-19T15:48:00;1.00;1.00;1.00
66336;PMS1003;53139;45.576;5.304;2023-09-19T15:51:04;0.50;0.50;0.50
66336;PMS1003;53139;45.576;5.304;2023-09-19T15:54:08;1.00;1.00;0.75
66336;PMS1003;53139;45.576;5.304;2023-09-19T15:57:10;0.00;0.00;0.00
66336;PMS1003;53139;45.576;5.304;2023-09-19T16:00:12;1.00;1.00;1.00
66336;PMS1003;53139;45.576;5.304;2023-09-19T16:03:17;0.00;0.00;0.00
66336;PMS1003;53139;45.576;5.304;2023-09-19T16:06:19;0.00;0.00;0.00
66336;PMS1003;53139;45.576;5.304;2023-09-19T16:09:23;0.00;0.00;0.00
66336;PMS1003;53139;45.576;5.304;2023-09-19T16:12:23;0.50;0.50;0.25
66336;PMS1003;53139;45.576;5.304;2023-09-19T16:15:23;0.00;0.00;0.00
66336;PMS1003;53139;45.576;5.304;2023-09-19T16:18:24;0.00;0.00;0.00
66336;PMS1003;53139;45.576;5.304;2023-09-19T16:21:24;0.00;0.00;0.00
66336;PMS1003;53139;45.576;5.304;2023-09-19T16:24:27;0.00;0.00;0.00
66336;PMS1003;53139;45.576;5.304;2023-09-19T16:27:27;1.00;1.00;0.75
66336;PMS1003;53139;45.576;5.304;2023-09-19T16:30:27;0.50;0.50;0.00
66336;PMS1003;53139;45.576;5.304;2023-09-19T16:33:29;2.00;1.00;1.00
66336;PMS1003;53139;45.576;5.304;2023-09-19T16:36:31;0.00;0.00;0.00
66336;PMS1003;53139;45.576;5.304;2023-09-19T16:39:31;0.25;0.00;0.00
66336;PMS1003;53139;45.576;5.304;2023-09-19T16:42:32;2.00;0.25;0.25
66336;PMS1003;53139;45.576;5.304;2023-09-19T16:45:32;1.25;1.00;1.00
66336;PMS1003;53139;45.576;5.304;2023-09-19T16:48:35;0.00;0.00;0.00
66336;PMS1003;53139;45.576;5.304;2023-09-19T16:51:35;3.25;1.00;1.00
66336;PMS1003;53139;45.576;5.304;2023-09-19T16:54:37;0.75;0.75;0.00
66336;PMS1003;53139;45.576;5.304;2023-09-19T16:57:38;0.25;0.25;0.25
66336;PMS1003;53139;45.576;5.304;2023-09-19T17:00:42;1.00;1.00;0.00
66336;PMS1003;53139;45.576;5.304;2023-09-19T17:03:45;1.50;1.50;1.00
66336;PMS1003;53139;45.576;5.304;2023-09-19T17:06:46;0.50;0.50;0.00
66336;PMS1003;53139;45.576;5.304;2023-09-19T17:09:47;1.00;1.00;1.00
66336;PMS1003;53139;45.576;5.304;2023-09-19T17:12:47;1.50;1.25;1.00
66336;PMS1003;53139;45.576;5.304;2023-09-19T17:15:48;1.00;1.00;1.00
66336;PMS1003;53139;45.576;5.304;2023-09-19T17:19:07;3.00;1.75;1.00
66336;PMS1003;53139;45.576;5.304;2023-09-19T17:22:08;4.75;1.00;1.00
66336;PMS1003;53139;45.576;5.304;2023-09-19T17:25:09;1.50;1.00;1.00
66336;PMS1003;53139;45.576;5.304;2023-09-19T17:28:09;2.00;1.50;1.00
66336;PMS1003;53139;45.576;5.304;2023-09-19T17:31:19;1.25;0.50;0.50
66336;PMS1003;53139;45.576;5.304;2023-09-19T17:34:21;2.00;1.00;1.00
66336;PMS1003;53139;45.576;5.304;2023-09-19T17:37:22;2.00;2.00;1.25
66336;PMS1003;53139;45.576;5.304;2023-09-19T17:40:23;2.75;1.00;1.00
66336;PMS1003;53139;45.576;5.304;2023-09-19T17:43:23;3.00;2.00;1.00
66336;PMS1003;53139;45.576;5.304;2023-09-19T17:46:24;1.75;0.50;0.00
66336;PMS1003;53139;45.576;5.304;2023-09-19T17:49:25;2.00;0.25;0.00
66336;PMS1003;53139;45.576;5.304;2023-09-19T17:52:26;1.00;1.00;0.50
66336;PMS1003;53139;45.576;5.304;2023-09-19T17:55:27;2.00;2.00;1.00
66336;PMS1003;53139;45.576;5.304;2023-09-19T17:58:27;1.25;1.25;1.25
66336;PMS1003;53139;45.576;5.304;2023-09-19T18:01:28;2.00;2.00;1.50
66336;PMS1003;53139;45.576;5.304;2023-09-19T18:04:28;3.50;2.00;2.00
66336;PMS1003;53139;45.576;5.304;2023-09-19T18:07:29;1.00;1.00;0.75
66336;PMS1003;53139;45.576;5.304;2023-09-19T18:10:30;2.00;1.00;1.00
66336;PMS1003;53139;45.576;5.304;2023-09-19T18:13:32;2.75;1.50;1.00
66336;PMS1003;53139;45.576;5.304;2023-09-19T18:16:32;2.25;1.50;1.00
66336;PMS1003;53139;45.576;5.304;2023-09-19T18:19:33;1.00;1.00;1.00